| Date | Time | Temp. (oF) | Dew Point (oF) | Rel. Hum. (%) | Press. (in.) | Wind Dir. (deg.) | Wind Speed (mph) | Hourly Rainfall (i n.) |
|
|---|---|---|---|---|---|---|---|---|---|
| 1 | 07/11 | 24:00 | 64 | 52 | 66 | 30.27 | 350 | 0 | 0.00 |
| 2 | 07/10 | 23:00 | 67 | 53 | 63 | 30.25 | 360 | 2 | 0.00 |
| 3 | 07/10 | 22:00 | 68 | 56 | 66 | 30.24 | 10 | 2 | 0.00 |
| 4 | 07/10 | 21:00 | 69 | 58 | 69 | 30.18 | 10 | 4 | 0.00 |
| 5 | 07/10 | 20:00 | 72 | 60 | 67 | 30.14 | 320 | 4 | 0.00 |
| 6 | 07/10 | 19:00 | 74 | 65 | 75 | 30.12 | 340 | 4 | 0.00 |
| 7 | 07/10 | 18:00 | 75 | 69 | 82 | 30.08 | 290 | 1 | 0.00 |
| 8 | 07/10 | 17:00 | 75 | 66 | 76 | 30.08 | 350 | 1 | 0.15 |
| 9 | 07/10 | 16:00 | 82 | 69 | 67 | 30.06 | 340 | 7 | 0.00 |
| 10 | 07/10 | 15:00 | 81 | 69 | 68 | 30.07 | 290 | 7 | 0.00 |
| 11 | 07/10 | 14:00 | 79 | 68 | 70 | 30.06 | 180 | 6 | 0.00 |
| 12 | 07/10 | 13:00 | 77 | 66 | 70 | 30.08 | 250 | 1 | 0.00 |
| 13 | 07/10 | 12:00 | 75 | 65 | 73 | 30.08 | 130 | 2 | 0.00 |
| 14 | 07/10 | 11:00 | 74 | 67 | 80 | 30.07 | 150 | 2 | 0.00 |
| 15 | 07/10 | 10:00 | 73 | 65 | 78 | 30.07 | 150 | 0 | 0.02 |
| 16 | 07/10 | 09:00 | 74 | 65 | 74 | 30.07 | 270 | 4 | 0.00 |
| 17 | miss | miss | miss | miss | miss | miss | miss | miss | |
| 18 | 07/09 | 11:20 | 84 | 60 | 45 | 30.09 | 150 | 4 | 0.00 |
| 19 | miss | miss | miss | miss | miss | miss | miss | miss | |
| 20 | 07/09 | 11:18 | 84 | 60 | 45 | 30.09 | 150 | 6 | 0.00 |
| 21 | miss | miss | miss | miss | miss | miss | miss | miss | |
| 22 | 07/09 | 11:16 | 84 | 60 | 45 | 30.09 | 140 | 4 | 0.00 |
| 23 | miss | miss | miss | miss | miss | miss | miss | miss | |
| 24 | 07/09 | 11:11 | 83 | 60 | 47 | 30.10 | 140 | 4 | 0.00 |
| 25 | miss | miss | miss | miss | miss | miss | miss | miss | |
| 26 | 07/09 | 11:10 | 83 | 60 | 47 | 30.10 | 130 | 1 | 0.00 |
| 27 | miss | miss | miss | miss | miss | miss | miss | miss | |
| 28 | 07/09 | 11:10 | 83 | 60 | 47 | 30.10 | 130 | 1 | 0.00 |
| 29 | miss | miss | miss | miss | miss | miss | miss | miss | |
| 30 | 07/09 | 11:10 | 83 | 60 | 47 | 30.10 | 130 | 1 | 0.00 |
| 31 | miss | miss | miss | miss | miss | miss | miss | miss | |
| 32 | 07/09 | 11:10 | 83 | 60 | 47 | 30.10 | 130 | 1 | 0.00 |
| 33 | miss | miss | miss | miss | miss | miss | miss | miss | |
| 34 | 07/09 | 11:10 | 83 | 60 | 47 | 30.10 | 130 | 1 | 0.00 |
| 35 | miss | miss | miss | miss | miss | miss | miss | miss | |
| 36 | 07/09 | 11:10 | 83 | 60 | 47 | 30.10 | 130 | 1 | 0.00 |
| 37 | miss | miss | miss | miss | miss | miss | miss | miss | |
| 38 | 07/09 | 11:00 | 82 | 60 | 49 | 30.10 | 130 | 1 | 0.00 |
| 39 | 07/09 | 10:00 | 73 | 59 | 63 | 30.11 | 70 | 0 | 0.00 |
| 40 | 07/09 | 09:00 | 68 | 61 | 79 | 30.13 | 350 | 0 | 0.00 |
| 41 | 07/09 | 08:00 | 64 | 58 | 83 | 30.14 | 350 | 0 | 0.00 |
| 42 | 07/09 | 07:00 | 62 | 55 | 78 | 30.15 | 350 | 0 | 0.00 |
| 43 | 07/09 | 06:00 | 63 | 55 | 77 | 30.21 | 350 | 0 | 0.00 |
| 44 | 07/09 | 05:00 | 64 | 56 | 76 | 30.20 | 350 | 0 | 0.00 |
| 45 | 07/09 | 04:00 | 65 | 57 | 76 | 30.20 | 350 | 1 | 0.00 |
| 46 | 07/09 | 03:00 | 64 | 55 | 75 | 30.19 | 350 | 0 | 0.00 |
| 47 | 07/09 | 02:00 | 65 | 54 | 70 | 30.20 | 350 | 0 | 0.00 |
| 48 | 07/09 | 01:00 | 67 | 54 | 65 | 30.18 | 350 | 0 | 0.00 |
| 49 | 07/09 | 24:00 | 69 | 54 | 59 | 30.17 | 350 | 0 | 0.00 |
| 50 | 07/08 | 23:00 | 71 | 52 | 53 | 30.17 | 350 | 0 | 0.00 |
| 51 | 07/08 | 22:00 | 74 | 52 | 47 | 30.15 | 350 | 0 | 0.00 |
| 52 | 07/08 | 21:00 | 77 | 49 | 39 | 30.09 | 350 | 0 | 0.00 |
| 53 | 07/08 | 20:00 | 81 | 52 | 37 | 30.09 | 350 | 2 | 0.00 |
| 54 | 07/08 | 19:00 | 84 | 53 | 35 | 30.09 | 350 | 6 | 0.00 |
| 55 | 07/08 | 18:00 | 87 | 54 | 34 | 30.09 | 270 | 2 | 0.00 |
| 56 | 07/08 | 17:00 | 87 | 51 | 30 | 30.10 | 330 | 2 | 0.00 |
| 57 | 07/08 | 16:00 | 89 | 53 | 30 | 30.09 | 10 | 6 | 0.00 |
| 58 | 07/08 | 15:00 | 90 | 53 | 29 | 30.08 | 330 | 9 | 0.00 |
| 59 | 07/08 | 14:00 | 91 | 54 | 30 | 30.07 | 330 | 10 | 0.00 |
| 60 | 07/08 | 13:00 | 90 | 57 | 34 | 30.07 | 320 | 9 | 0.00 |
| 61 | 07/08 | 12:00 | 90 | 58 | 35 | 30.09 | 330 | 6 | 0.00 |
| 62 | 07/08 | 11:00 | 86 | 57 | 39 | 30.11 | 290 | 9 | 0.00 |
| 63 | 07/08 | 10:00 | 76 | 55 | 49 | 30.10 | 300 | 7 | 0.00 |
| 64 | 07/08 | 09:00 | 71 | 56 | 60 | 30.11 | 290 | 4 | 0.00 |
| 65 | 07/08 | 08:00 | 65 | 56 | 74 | 30.08 | 290 | 0 | 0.00 |
| 66 | 07/08 | 07:00 | 62 | 55 | 78 | 30.09 | 290 | 0 | 0.00 |
| 67 | 07/08 | 06:00 | 63 | 55 | 76 | 30.14 | 290 | 0 | 0.00 |
| 68 | 07/08 | 05:00 | 65 | 56 | 75 | 30.12 | 290 | 0 | 0.00 |
| 69 | 07/08 | 04:00 | 66 | 56 | 72 | 30.12 | 290 | 0 | 0.00 |
| 70 | 07/08 | 03:00 | 68 | 57 | 68 | 30.13 | 290 | 0 | 0.00 |
| 71 | 07/08 | 02:00 | 69 | 56 | 65 | 30.13 | 290 | 0 | 0.00 |